Time;durP1;ratioP1;P1;durP2;ratioP2;P2;SDS_P1;SDS_P2;PMS_P1;PMS_P2;Temp;Humidity;BMP_temperature;BMP_pressure;BME280_temperature;BME280_humidity;BME280_pressure;Samples;Min_cycle;Max_cycle;Signal;HPM_P1;HPM_P2
2022/10/31 00:01:01;;;;;;;23.67;1.73;;;10.10;99.90;;;;;;5051230;28;20188;-65
2022/10/31 00:03:26;;;;;;;2.03;0.90;;;10.10;99.90;;;;;;5051306;28;20224;-66
2022/10/31 00:05:52;;;;;;;3.50;1.60;;;10.10;99.90;;;;;;5051589;28;20224;-66
2022/10/31 00:08:18;;;;;;;4.70;1.90;;;10.10;99.90;;;;;;5051555;28;20205;-66
2022/10/31 00:10:46;;;;;;;4.30;1.63;;;10.10;99.90;;;;;;5051556;28;20224;-66
2022/10/31 00:13:13;;;;;;;4.30;1.13;;;10.00;99.90;;;;;;5042162;28;20446;-66
2022/10/31 00:15:39;;;;;;;2.43;1.30;;;10.00;99.90;;;;;;5051006;28;20423;-66
2022/10/31 00:18:06;;;;;;;3.50;1.60;;;9.90;99.90;;;;;;5051277;28;20420;-66
2022/10/31 00:20:32;;;;;;;11.07;2.10;;;9.90;99.90;;;;;;5051058;28;20916;-66
2022/10/31 00:22:59;;;;;;;14.17;1.70;;;9.90;99.90;;;;;;5050851;28;20422;-66
2022/10/31 00:25:25;;;;;;;5.47;1.53;;;9.90;99.90;;;;;;5051311;28;20256;-66
2022/10/31 00:27:51;;;;;;;2.53;1.20;;;9.90;99.90;;;;;;5050451;28;20465;-66
2022/10/31 00:30:16;;;;;;;4.53;2.27;;;9.80;99.90;;;;;;5049915;28;20408;-66
2022/10/31 00:32:42;;;;;;;2.90;1.50;;;9.80;99.90;;;;;;5050812;28;20249;-66
2022/10/31 00:35:08;;;;;;;2.63;1.17;;;9.90;99.90;;;;;;5051218;28;20197;-66
2022/10/31 00:37:33;;;;;;;5.40;1.17;;;9.80;99.90;;;;;;5051079;28;20217;-66
2022/10/31 00:39:59;;;;;;;2.97;1.60;;;9.80;99.90;;;;;;5051091;28;20192;-66
2022/10/31 00:42:24;;;;;;;3.97;1.67;;;9.80;99.90;;;;;;5053309;28;20189;-66
2022/10/31 00:44:50;;;;;;;7.30;2.13;;;9.80;99.90;;;;;;5054871;28;20209;-66
2022/10/31 00:47:15;;;;;;;4.10;1.30;;;9.80;99.90;;;;;;5054955;28;20208;-66
2022/10/31 00:49:41;;;;;;;3.63;1.50;;;9.70;99.90;;;;;;5055210;28;20188;-66
2022/10/31 00:52:07;;;;;;;9.40;1.60;;;9.60;99.90;;;;;;5054499;28;20257;-66
2022/10/31 00:54:32;;;;;;;8.27;1.50;;;9.60;99.90;;;;;;5055049;28;20269;-66
2022/10/31 00:56:58;;;;;;;8.03;1.40;;;9.60;99.90;;;;;;5054414;28;20308;-63
2022/10/31 00:59:23;;;;;;;2.40;1.23;;;9.60;99.90;;;;;;5053489;28;20196;-63
2022/10/31 01:01:49;;;;;;;2.87;1.50;;;9.60;99.90;;;;;;5054327;28;20182;-63
2022/10/31 01:04:15;;;;;;;5.10;1.93;;;9.50;99.90;;;;;;5054864;28;20182;-63
2022/10/31 01:06:41;;;;;;;4.70;1.57;;;9.50;99.90;;;;;;5053272;28;20186;-65
2022/10/31 01:09:07;;;;;;;5.53;1.90;;;9.50;99.90;;;;;;5054354;28;20189;-64
2022/10/31 01:11:32;;;;;;;3.30;1.60;;;9.50;99.90;;;;;;5049726;28;21240;-64
2022/10/31 01:13:58;;;;;;;2.23;1.17;;;9.50;99.90;;;;;;5049219;28;20776;-64
2022/10/31 01:16:26;;;;;;;3.77;1.50;;;9.50;99.90;;;;;;5053229;28;20301;-64
2022/10/31 01:18:52;;;;;;;8.03;1.87;;;9.40;99.90;;;;;;5054222;28;20227;-65
2022/10/31 01:21:24;;;;;;;4.87;1.70;;;9.40;99.90;;;;;;5054380;28;20454;-65
2022/10/31 01:23:52;;;;;;;3.90;2.10;;;9.30;99.90;;;;;;5053726;28;21037;-66
2022/10/31 01:26:21;;;;;;;3.10;1.63;;;9.40;99.90;;;;;;5054406;28;21091;-66
2022/10/31 01:29:07;;;;;;;5.10;1.73;;;9.40;99.90;;;;;;5053458;28;20412;-66
2022/10/31 01:31:36;;;;;;;6.63;2.33;;;9.40;99.90;;;;;;5052741;28;20495;-66
2022/10/31 01:34:02;;;;;;;5.50;1.70;;;9.40;99.90;;;;;;5053600;28;20948;-65
2022/10/31 01:36:30;;;;;;;4.00;1.87;;;9.40;99.90;;;;;;5054139;28;20459;-65
2022/10/31 01:39:05;;;;;;;8.33;2.17;;;9.40;99.90;;;;;;5053994;28;20444;-65
2022/10/31 01:41:33;;;;;;;3.87;1.60;;;9.30;99.90;;;;;;5053520;28;20412;-65
2022/10/31 01:44:01;;;;;;;3.63;1.93;;;9.30;99.90;;;;;;5053346;28;20419;-65
2022/10/31 01:46:32;;;;;;;6.30;2.37;;;9.40;99.90;;;;;;5052713;28;20436;-65
2022/10/31 01:49:01;;;;;;;3.10;1.83;;;9.30;99.90;;;;;;5053868;28;20448;-65
2022/10/31 01:51:34;;;;;;;3.73;1.87;;;9.20;99.90;;;;;;5053466;28;20416;-65
2022/10/31 01:54:04;;;;;;;4.10;1.73;;;9.20;99.90;;;;;;5051426;28;20428;-66
2022/10/31 01:56:30;;;;;;;6.80;1.83;;;9.20;99.90;;;;;;5053564;28;20554;-65
2022/10/31 01:58:59;;;;;;;2.83;1.33;;;9.20;99.90;;;;;;5052486;28;20427;-65
2022/10/31 02:01:25;;;;;;;5.23;1.73;;;9.20;99.90;;;;;;5052923;28;20776;-65
2022/10/31 02:03:51;;;;;;;2.93;1.67;;;9.20;99.90;;;;;;5053087;28;20417;-66
2022/10/31 02:06:37;;;;;;;3.20;1.80;;;9.20;99.90;;;;;;5053496;28;20500;-65
2022/10/31 02:09:05;;;;;;;5.60;1.87;;;9.20;99.90;;;;;;5053354;28;20423;-65
2022/10/31 02:11:32;;;;;;;7.43;1.93;;;9.20;99.90;;;;;;5050344;28;20458;-65
2022/10/31 02:14:00;;;;;;;4.50;1.80;;;9.10;99.90;;;;;;5048436;28;20946;-65
2022/10/31 02:16:25;;;;;;;2.73;1.50;;;9.10;99.90;;;;;;5053278;28;20464;-63
2022/10/31 02:18:51;;;;;;;5.33;1.33;;;9.10;99.90;;;;;;5053243;28;20420;-65
2022/10/31 02:21:44;;;;;;;15.77;2.10;;;9.10;99.90;;;;;;5053268;28;20174;-65
2022/10/31 02:24:42;;;;;;;3.10;1.60;;;9.00;99.90;;;;;;5053390;28;20188;-65
2022/10/31 02:27:38;;;;;;;2.47;1.33;;;9.10;99.90;;;;;;5052927;28;20893;-65
2022/10/31 02:30:05;;;;;;;2.80;1.33;;;9.00;99.90;;;;;;5051662;28;20494;-65
2022/10/31 02:32:43;;;;;;;4.33;1.77;;;9.00;99.90;;;;;;5052814;28;20416;-65
2022/10/31 02:35:16;;;;;;;7.03;1.73;;;9.00;99.90;;;;;;5053153;28;20432;-65
2022/10/31 02:37:51;;;;;;;2.87;1.40;;;9.00;99.90;;;;;;5052876;28;20459;-65
2022/10/31 02:40:32;;;;;;;2.93;1.30;;;9.00;99.90;;;;;;5052719;28;20430;-65
2022/10/31 02:43:06;;;;;;;3.50;1.93;;;9.00;99.90;;;;;;5050582;28;20488;-64
2022/10/31 02:45:42;;;;;;;3.93;1.73;;;8.80;99.90;;;;;;5052646;28;20884;-64
2022/10/31 02:48:18;;;;;;;4.07;2.23;;;8.90;99.90;;;;;;5052641;28;20439;-64
2022/10/31 02:50:50;;;;;;;2.30;1.30;;;8.90;99.90;;;;;;5052463;28;20463;-64
2022/10/31 02:53:16;;;;;;;2.80;1.17;;;8.90;99.90;;;;;;5062010;23;20496;-64
2022/10/31 02:55:49;;;;;;;6.40;1.83;;;8.90;99.90;;;;;;5032623;28;20437;-64
2022/10/31 02:58:19;;;;;;;5.20;1.57;;;8.90;99.90;;;;;;5031747;28;20417;-64
2022/10/31 03:01:20;;;;;;;2.77;1.40;;;8.90;99.90;;;;;;5032453;28;20428;-64
2022/10/31 03:03:54;;;;;;;3.30;1.57;;;8.90;99.90;;;;;;5031897;28;20421;-64
2022/10/31 03:06:33;;;;;;;2.97;1.40;;;8.90;99.90;;;;;;5032500;28;21065;-64
2022/10/31 03:09:26;;;;;;;3.33;1.30;;;8.80;99.90;;;;;;5023677;28;20418;-64
2022/10/31 03:12:02;;;;;;;2.90;1.50;;;8.80;99.90;;;;;;5031593;28;20432;-64
2022/10/31 03:15:04;;;;;;;3.63;1.40;;;8.80;99.90;;;;;;5026453;28;20463;-64
2022/10/31 03:17:36;;;;;;;2.33;1.53;;;8.80;99.90;;;;;;5032236;28;20484;-64
2022/10/31 03:20:06;;;;;;;2.83;1.57;;;8.80;99.90;;;;;;5025165;28;20501;-64
2022/10/31 03:22:34;;;;;;;12.40;1.87;;;8.80;99.90;;;;;;5025523;28;20410;-64
2022/10/31 03:25:02;;;;;;;4.40;1.63;;;8.70;99.90;;;;;;5024793;28;20417;-65
2022/10/31 03:27:32;;;;;;;7.70;2.30;;;8.60;99.90;;;;;;5031669;28;20432;-64
2022/10/31 03:30:01;;;;;;;9.57;1.80;;;8.60;99.90;;;;;;5030533;28;20421;-65
2022/10/31 03:32:42;;;;;;;3.00;1.50;;;8.60;99.90;;;;;;5031578;28;20514;-64
2022/10/31 03:35:10;;;;;;;2.63;1.63;;;8.60;99.90;;;;;;5031976;28;20780;-64
2022/10/31 03:37:37;;;;;;;7.23;2.13;;;8.60;99.90;;;;;;5031796;28;20591;-64
2022/10/31 03:40:06;;;;;;;2.37;1.33;;;8.60;99.90;;;;;;5031676;28;20436;-64
2022/10/31 03:42:34;;;;;;;3.30;1.60;;;8.50;99.90;;;;;;5030841;28;20520;-64
2022/10/31 03:45:04;;;;;;;5.47;2.07;;;8.50;99.90;;;;;;5031461;28;20819;-64
2022/10/31 03:47:30;;;;;;;4.37;2.13;;;8.50;99.90;;;;;;5031547;28;20417;-64
2022/10/31 03:49:56;;;;;;;4.30;1.90;;;8.50;99.90;;;;;;5031662;28;20420;-64
2022/10/31 03:52:52;;;;;;;3.03;1.37;;;8.50;99.90;;;;;;5031363;28;20187;-64
2022/10/31 03:55:22;;;;;;;2.27;1.43;;;8.50;99.90;;;;;;5020391;28;20503;-64
2022/10/31 03:58:08;;;;;;;2.73;1.50;;;8.60;99.90;;;;;;5031335;28;20452;-64
2022/10/31 04:00:38;;;;;;;2.60;1.40;;;8.60;99.90;;;;;;5031599;28;20404;-64
2022/10/31 04:03:10;;;;;;;8.03;1.90;;;8.60;99.90;;;;;;5027179;28;20444;-64
2022/10/31 04:05:37;;;;;;;3.23;1.87;;;8.50;99.90;;;;;;5025202;28;20409;-64
2022/10/31 04:08:07;;;;;;;5.40;2.00;;;8.50;99.90;;;;;;5029279;28;20417;-64
2022/10/31 04:10:36;;;;;;;6.50;2.57;;;8.50;99.90;;;;;;5026003;28;20424;-64
2022/10/31 04:13:09;;;;;;;3.37;1.60;;;8.50;99.90;;;;;;5030625;28;20449;-64
2022/10/31 04:15:37;;;;;;;3.70;1.30;;;8.50;99.90;;;;;;5031458;28;20467;-64
2022/10/31 04:18:04;;;;;;;2.57;1.50;;;8.40;99.90;;;;;;5035399;28;20506;-64
2022/10/31 04:20:36;;;;;;;18.50;2.13;;;8.40;99.90;;;;;;5027328;28;20409;-64
2022/10/31 04:23:02;;;;;;;2.80;1.67;;;8.40;99.90;;;;;;5035052;28;20418;-64
2022/10/31 04:25:28;;;;;;;4.07;1.80;;;8.40;99.90;;;;;;5035415;28;20483;-64
2022/10/31 04:27:54;;;;;;;4.30;1.50;;;8.40;99.90;;;;;;5034964;28;20914;-64
2022/10/31 04:30:20;;;;;;;6.77;2.40;;;8.40;99.90;;;;;;5033877;28;20421;-64
2022/10/31 04:32:45;;;;;;;3.90;2.30;;;8.40;99.90;;;;;;5034646;28;20182;-65
2022/10/31 04:35:11;;;;;;;7.93;2.40;;;8.40;99.90;;;;;;5035127;28;20190;-64
2022/10/31 04:37:37;;;;;;;4.60;1.37;;;8.40;99.90;;;;;;5035155;28;20206;-64
2022/10/31 04:40:04;;;;;;;4.20;1.90;;;8.40;99.90;;;;;;5034874;28;20186;-64
2022/10/31 04:42:30;;;;;;;3.40;2.17;;;8.40;99.90;;;;;;5034165;28;20186;-65
2022/10/31 04:44:56;;;;;;;2.73;1.57;;;8.40;99.90;;;;;;5034812;28;20495;-64
2022/10/31 04:47:21;;;;;;;5.80;2.30;;;8.40;99.90;;;;;;5034882;28;20449;-64
2022/10/31 04:49:47;;;;;;;3.57;1.90;;;8.30;99.90;;;;;;5034784;28;20186;-64
2022/10/31 04:52:12;;;;;;;7.40;1.97;;;8.20;99.90;;;;;;5034496;28;20194;-64
2022/10/31 04:54:38;;;;;;;3.80;2.27;;;8.20;99.90;;;;;;5026443;28;20194;-64
2022/10/31 04:57:03;;;;;;;3.20;1.70;;;8.20;99.90;;;;;;5034290;28;20213;-64
2022/10/31 04:59:29;;;;;;;3.37;1.43;;;8.30;99.90;;;;;;5034829;28;20655;-64
2022/10/31 05:01:55;;;;;;;9.70;2.37;;;8.30;99.90;;;;;;5034036;28;20181;-64
2022/10/31 05:04:20;;;;;;;6.70;2.00;;;8.30;99.90;;;;;;5034651;28;20526;-64
2022/10/31 05:06:46;;;;;;;5.97;2.60;;;8.20;99.90;;;;;;5034620;28;20191;-65
2022/10/31 05:09:11;;;;;;;4.70;1.80;;;8.20;99.90;;;;;;5025306;28;20193;-65
2022/10/31 05:11:37;;;;;;;8.30;2.20;;;8.20;99.90;;;;;;5033699;28;20190;-65
2022/10/31 05:14:03;;;;;;;3.00;1.63;;;8.20;99.90;;;;;;5033597;28;20182;-65
2022/10/31 05:16:28;;;;;;;3.80;2.20;;;8.20;99.90;;;;;;5034483;28;20198;-65
2022/10/31 05:18:54;;;;;;;6.23;1.40;;;8.20;99.90;;;;;;5034181;28;20569;-65
2022/10/31 05:21:19;;;;;;;4.20;1.53;;;8.20;99.90;;;;;;5026155;28;20205;-65
2022/10/31 05:23:45;;;;;;;2.80;1.60;;;8.10;99.90;;;;;;5033791;28;20213;-65
2022/10/31 05:26:11;;;;;;;4.53;1.50;;;8.10;99.90;;;;;;5034232;28;20185;-65
2022/10/31 05:28:36;;;;;;;3.13;1.80;;;8.10;99.90;;;;;;5033976;28;20182;-65
2022/10/31 05:31:02;;;;;;;9.00;1.70;;;8.10;99.90;;;;;;5033056;28;20205;-65
2022/10/31 05:33:28;;;;;;;3.63;1.60;;;8.10;99.90;;;;;;5033969;28;20534;-65
2022/10/31 05:35:53;;;;;;;4.93;2.43;;;8.00;99.90;;;;;;5034341;28;20420;-65
2022/10/31 05:38:19;;;;;;;2.00;1.27;;;8.00;99.90;;;;;;5034106;28;20297;-65
2022/10/31 05:40:45;;;;;;;4.53;2.40;;;8.00;99.90;;;;;;5034238;28;20183;-65
2022/10/31 05:43:10;;;;;;;6.20;2.23;;;8.00;99.90;;;;;;5023881;28;20190;-65
2022/10/31 05:45:36;;;;;;;6.10;1.10;;;8.00;99.90;;;;;;5033795;28;20186;-65
2022/10/31 05:48:02;;;;;;;5.03;1.60;;;8.00;99.90;;;;;;5033727;28;20225;-65
2022/10/31 05:50:30;;;;;;;5.10;2.37;;;7.90;99.90;;;;;;5033810;28;20218;-65
2022/10/31 05:53:01;;;;;;;4.70;1.90;;;7.90;99.90;;;;;;5033052;28;20479;-65
2022/10/31 05:55:27;;;;;;;2.87;2.00;;;7.90;99.90;;;;;;5033954;28;20419;-63
2022/10/31 05:57:54;;;;;;;2.87;1.93;;;7.90;99.90;;;;;;5033055;28;20933;-63
2022/10/31 06:00:20;;;;;;;5.90;1.90;;;7.90;99.90;;;;;;5033442;28;20445;-64
2022/10/31 06:02:45;;;;;;;2.10;1.40;;;7.90;99.90;;;;;;5032715;28;20415;-64
2022/10/31 06:05:12;;;;;;;2.80;1.57;;;7.80;99.90;;;;;;5033290;28;20497;-64
2022/10/31 06:07:37;;;;;;;5.53;2.63;;;7.90;99.90;;;;;;5031308;28;20232;-64
2022/10/31 06:10:04;;;;;;;3.70;1.53;;;7.90;99.90;;;;;;5026377;28;20811;-64
2022/10/31 06:12:30;;;;;;;3.90;2.10;;;7.90;99.90;;;;;;5032326;28;20232;-64
2022/10/31 06:14:56;;;;;;;5.53;2.20;;;7.90;99.90;;;;;;5033147;28;20475;-64
2022/10/31 06:17:21;;;;;;;6.40;1.97;;;7.90;99.90;;;;;;5033219;28;20824;-64
2022/10/31 06:19:47;;;;;;;21.33;2.37;;;7.90;99.90;;;;;;5027633;28;20275;-64
2022/10/31 06:22:13;;;;;;;5.87;2.43;;;7.90;99.90;;;;;;5029314;28;20190;-64
2022/10/31 06:24:38;;;;;;;7.33;2.40;;;7.90;99.90;;;;;;5033427;28;20218;-64
2022/10/31 06:27:05;;;;;;;5.00;2.63;;;7.90;99.90;;;;;;5032555;28;20182;-64
2022/10/31 06:29:31;;;;;;;4.27;2.27;;;7.90;99.90;;;;;;5032786;28;20182;-64
2022/10/31 06:31:56;;;;;;;5.40;2.30;;;7.90;99.90;;;;;;5026605;28;20534;-64
2022/10/31 06:34:22;;;;;;;6.93;2.60;;;7.90;99.90;;;;;;5023112;28;20256;-64
2022/10/31 06:36:47;;;;;;;2.57;1.50;;;7.90;99.90;;;;;;5032634;28;20237;-64
2022/10/31 06:39:13;;;;;;;3.97;1.60;;;7.90;99.90;;;;;;5032384;28;20187;-64
2022/10/31 06:41:39;;;;;;;3.80;2.40;;;8.00;99.90;;;;;;5032125;28;20225;-64
2022/10/31 06:44:06;;;;;;;7.03;2.67;;;8.00;99.90;;;;;;5032396;28;20421;-64
2022/10/31 06:46:32;;;;;;;4.53;2.27;;;8.10;99.90;;;;;;5032683;28;20239;-64
2022/10/31 06:48:57;;;;;;;3.53;1.90;;;8.10;99.90;;;;;;5032804;28;20817;-64
2022/10/31 06:51:23;;;;;;;4.03;1.70;;;8.10;99.90;;;;;;5032692;28;20183;-64
2022/10/31 06:53:49;;;;;;;3.00;1.63;;;8.20;99.90;;;;;;5032046;28;20909;-64
2022/10/31 06:56:14;;;;;;;4.80;2.07;;;8.20;99.90;;;;;;5032551;28;20241;-64
2022/10/31 06:58:40;;;;;;;5.77;2.70;;;8.20;99.90;;;;;;5032120;28;20651;-64
2022/10/31 07:01:06;;;;;;;3.30;2.07;;;8.20;99.90;;;;;;5028638;28;20186;-64
2022/10/31 07:03:31;;;;;;;4.43;1.97;;;8.20;99.90;;;;;;5022279;28;20324;-64
2022/10/31 07:05:57;;;;;;;7.20;2.20;;;8.20;99.90;;;;;;5032456;28;20280;-64
2022/10/31 07:08:23;;;;;;;2.57;1.30;;;8.40;99.90;;;;;;5030599;28;20174;-64
2022/10/31 07:10:55;;;;;;;5.50;2.50;;;8.40;99.90;;;;;;5032554;28;20464;-64
2022/10/31 07:13:25;;;;;;;5.83;1.90;;;8.50;99.90;;;;;;5031446;28;20424;-64
2022/10/31 07:15:52;;;;;;;4.07;1.77;;;8.60;99.90;;;;;;5032169;28;20887;-64
2022/10/31 07:18:18;;;;;;;3.87;1.90;;;8.70;99.90;;;;;;5032013;28;20428;-64
2022/10/31 07:20:43;;;;;;;3.97;2.07;;;8.80;99.90;;;;;;5025180;28;20421;-64
2022/10/31 07:23:10;;;;;;;4.50;1.77;;;8.90;99.90;;;;;;5024620;28;20182;-64
2022/10/31 07:25:37;;;;;;;5.93;2.03;;;8.90;99.90;;;;;;5032272;28;20590;-64
2022/10/31 07:28:02;;;;;;;6.87;2.30;;;8.90;99.90;;;;;;5031378;28;20750;-65
2022/10/31 07:30:28;;;;;;;4.00;2.30;;;9.00;99.90;;;;;;5030627;28;20427;-65
2022/10/31 07:32:55;;;;;;;4.00;2.13;;;9.00;99.90;;;;;;5020408;28;20202;-64
2022/10/31 07:35:26;;;;;;;4.00;2.30;;;9.10;99.90;;;;;;5029680;28;20186;-64
2022/10/31 07:37:52;;;;;;;4.33;2.33;;;9.30;99.90;;;;;;5031644;28;20480;-64
2022/10/31 07:40:19;;;;;;;5.87;2.20;;;9.40;99.90;;;;;;5031447;28;20425;-64
2022/10/31 07:42:47;;;;;;;3.80;2.30;;;9.50;99.90;;;;;;5030693;28;20761;-64
2022/10/31 07:45:15;;;;;;;4.77;1.77;;;9.60;99.90;;;;;;5031491;28;20423;-64
2022/10/31 07:47:45;;;;;;;6.50;1.80;;;9.70;99.90;;;;;;5031880;28;20432;-64
2022/10/31 07:50:15;;;;;;;5.53;2.60;;;9.80;99.90;;;;;;5031080;28;20480;-64
2022/10/31 07:52:41;;;;;;;4.33;1.47;;;9.90;99.90;;;;;;5011064;28;20422;-64
2022/10/31 07:55:07;;;;;;;6.30;2.00;;;10.00;99.90;;;;;;5012054;28;20418;-64
2022/10/31 07:57:33;;;;;;;15.33;2.30;;;10.10;99.90;;;;;;5011632;28;20637;-64
2022/10/31 07:59:59;;;;;;;4.13;1.90;;;10.30;99.90;;;;;;5011958;28;20426;-64
2022/10/31 08:02:25;;;;;;;4.77;2.03;;;10.40;99.90;;;;;;5011458;28;20183;-65
2022/10/31 08:04:50;;;;;;;3.30;1.90;;;10.70;99.90;;;;;;5011879;28;20183;-65
2022/10/31 08:07:16;;;;;;;3.17;1.87;;;10.80;99.90;;;;;;5011321;28;20654;-65
2022/10/31 08:09:42;;;;;;;3.20;2.00;;;11.00;99.90;;;;;;5011731;28;20175;-65
2022/10/31 08:12:07;;;;;;;4.93;2.83;;;11.10;99.90;;;;;;5005204;28;20236;-65
2022/10/31 08:14:33;;;;;;;7.23;3.10;;;11.30;99.90;;;;;;5011644;28;20262;-65
2022/10/31 08:16:58;;;;;;;7.47;2.80;;;11.50;99.90;;;;;;5011488;28;20549;-65
2022/10/31 08:19:24;;;;;;;3.70;2.30;;;11.50;99.90;;;;;;5009574;28;20297;-65
2022/10/31 08:21:58;;;;;;;6.10;2.17;;;11.70;99.90;;;;;;5004594;28;20191;-65
2022/10/31 08:24:24;;;;;;;6.93;2.80;;;11.80;99.90;;;;;;5011899;28;20254;-65
2022/10/31 08:26:50;;;;;;;6.43;2.13;;;11.90;99.90;;;;;;5011122;28;20434;-65
2022/10/31 08:29:15;;;;;;;5.47;2.10;;;12.00;99.90;;;;;;5011447;28;20433;-65
2022/10/31 08:31:42;;;;;;;5.80;2.70;;;12.10;99.90;;;;;;5009881;28;20221;-65
2022/10/31 08:34:07;;;;;;;3.77;1.60;;;12.20;99.90;;;;;;5011565;28;20318;-65
2022/10/31 08:36:33;;;;;;;4.00;2.50;;;12.20;99.90;;;;;;5011442;28;20565;-65
2022/10/31 08:38:59;;;;;;;7.10;2.93;;;12.30;99.90;;;;;;5011451;28;20175;-65
2022/10/31 08:41:25;;;;;;;8.07;3.60;;;12.40;99.90;;;;;;5011649;28;20222;-65
2022/10/31 08:43:50;;;;;;;8.67;3.00;;;12.40;99.90;;;;;;5010991;28;20548;-65
2022/10/31 08:46:16;;;;;;;7.90;3.00;;;12.40;99.90;;;;;;5011197;28;20186;-65
2022/10/31 08:48:42;;;;;;;5.10;2.53;;;12.50;99.90;;;;;;5011374;28;20262;-66
2022/10/31 08:51:09;;;;;;;5.57;2.20;;;12.50;99.90;;;;;;5011265;28;20585;-66
2022/10/31 08:53:35;;;;;;;4.90;2.70;;;12.50;99.90;;;;;;5010904;28;20195;-65
2022/10/31 08:56:00;;;;;;;10.00;3.87;;;12.60;99.90;;;;;;5011404;28;20819;-66
2022/10/31 08:58:26;;;;;;;8.43;2.63;;;12.60;99.90;;;;;;5009442;28;20267;-66
2022/10/31 09:00:53;;;;;;;5.73;2.53;;;12.70;99.90;;;;;;5010789;28;20273;-65
2022/10/31 09:03:27;;;;;;;5.23;2.30;;;12.80;99.90;;;;;;5005923;28;20225;-66
2022/10/31 09:06:01;;;;;;;4.57;2.90;;;12.90;99.90;;;;;;5014995;28;20941;-65
2022/10/31 09:08:29;;;;;;;6.70;2.37;;;13.00;99.90;;;;;;5009212;28;20418;-66
2022/10/31 09:10:57;;;;;;;5.10;2.03;;;13.00;99.90;;;;;;5012181;28;20409;-66
2022/10/31 09:13:23;;;;;;;8.97;2.97;;;13.10;99.90;;;;;;5013668;28;20414;-66
2022/10/31 09:15:49;;;;;;;9.97;1.90;;;13.20;99.90;;;;;;5014409;28;20771;-66
2022/10/31 09:18:17;;;;;;;4.80;2.00;;;13.30;99.90;;;;;;5014711;28;20458;-66
2022/10/31 09:20:44;;;;;;;3.33;2.00;;;13.30;99.90;;;;;;5006227;28;20418;-66
2022/10/31 09:23:28;;;;;;;5.27;1.80;;;13.40;99.90;;;;;;5014180;28;20487;-66
2022/10/31 09:25:55;;;;;;;7.13;2.90;;;13.50;99.90;;;;;;5014661;28;20429;-66
2022/10/31 09:28:22;;;;;;;6.93;2.70;;;13.60;99.90;;;;;;5014300;28;20429;-66
2022/10/31 09:30:50;;;;;;;5.97;2.33;;;13.70;99.90;;;;;;5013921;28;20422;-66
2022/10/31 09:33:16;;;;;;;10.20;2.20;;;13.70;99.90;;;;;;5014387;28;20422;-66
2022/10/31 09:35:42;;;;;;;3.60;2.03;;;13.80;99.90;;;;;;5014652;28;20422;-66
2022/10/31 09:38:12;;;;;;;5.50;2.03;;;13.90;99.90;;;;;;5012715;28;20473;-66
2022/10/31 09:40:43;;;;;;;10.13;2.50;;;14.00;99.90;;;;;;5014340;28;20573;-66
2022/10/31 09:43:30;;;;;;;3.10;1.63;;;14.10;99.90;;;;;;5013268;28;20907;-66
2022/10/31 09:46:13;;;;;;;8.63;2.80;;;14.20;99.90;;;;;;5014038;28;20480;-66
2022/10/31 09:48:59;;;;;;;4.90;2.37;;;14.30;99.90;;;;;;5013956;28;20410;-66
2022/10/31 09:51:30;;;;;;;2.60;1.80;;;14.50;99.90;;;;;;5012847;28;21007;-66
2022/10/31 09:54:12;;;;;;;3.90;2.20;;;14.70;99.90;;;;;;5008118;28;20442;-66
2022/10/31 09:56:38;;;;;;;4.93;2.10;;;14.70;99.90;;;;;;5013703;28;20830;-66
2022/10/31 09:59:10;;;;;;;5.63;2.07;;;14.90;99.90;;;;;;5013707;28;20429;-66
2022/10/31 10:01:45;;;;;;;12.20;2.30;;;15.10;99.90;;;;;;5013335;28;20648;-66
2022/10/31 10:04:29;;;;;;;4.87;1.90;;;15.10;99.90;;;;;;5013879;28;20409;-66
2022/10/31 10:06:55;;;;;;;4.93;2.47;;;15.20;99.90;;;;;;5013745;28;20426;-66
2022/10/31 10:09:26;;;;;;;5.00;2.33;;;15.30;99.90;;;;;;5004307;28;20422;-66
2022/10/31 10:12:06;;;;;;;4.50;2.00;;;15.40;99.90;;;;;;5012871;28;20548;-66
2022/10/31 10:15:00;;;;;;;2.67;1.23;;;15.60;99.90;;;;;;5012901;28;20422;-66
2022/10/31 10:18:00;;;;;;;4.80;2.57;;;15.70;99.90;;;;;;5013638;28;20557;-66
2022/10/31 10:20:37;;;;;;;2.87;1.77;;;15.80;99.90;;;;;;4999767;28;20449;-66
2022/10/31 10:23:28;;;;;;;4.80;1.63;;;15.90;99.90;;;;;;5011969;28;20768;-66
2022/10/31 10:26:22;;;;;;;10.00;2.60;;;16.00;99.90;;;;;;5013049;28;20425;-66
2022/10/31 10:29:02;;;;;;;2.60;1.53;;;16.10;99.90;;;;;;5004870;28;20434;-66
2022/10/31 10:31:34;;;;;;;7.30;1.90;;;16.30;99.90;;;;;;5012244;28;20424;-66
2022/10/31 10:34:02;;;;;;;4.03;2.33;;;16.30;99.90;;;;;;5013046;28;20425;-66
2022/10/31 10:37:01;;;;;;;3.33;1.43;;;16.30;99.90;;;;;;5013124;28;20457;-66
2022/10/31 10:39:41;;;;;;;5.10;1.90;;;16.40;99.90;;;;;;5008628;28;20417;-66
2022/10/31 10:47:55;;;;;;;5.90;2.10;;;16.40;99.90;;;;;;5013071;28;21082;-66
2022/10/31 10:50:27;;;;;;;6.63;2.07;;;16.40;99.90;;;;;;5013139;28;20421;-66
2022/10/31 10:53:08;;;;;;;2.60;1.07;;;16.40;99.90;;;;;;5012177;28;20496;-66
2022/10/31 10:55:42;;;;;;;4.47;1.40;;;16.60;99.90;;;;;;5012755;28;20943;-67
2022/10/31 10:58:09;;;;;;;3.67;2.10;;;16.70;99.90;;;;;;5012347;28;21175;-67
2022/10/31 11:00:46;;;;;;;7.13;2.43;;;16.90;99.90;;;;;;5012741;28;20425;-67
2022/10/31 11:03:14;;;;;;;4.87;2.03;;;17.10;99.90;;;;;;5012457;28;20845;-67
2022/10/31 11:05:58;;;;;;;3.57;1.50;;;17.30;99.90;;;;;;5012632;28;20430;-67
2022/10/31 11:08:32;;;;;;;4.50;2.07;;;17.60;99.90;;;;;;5007371;28;20429;-67
2022/10/31 11:11:22;;;;;;;8.60;2.10;;;17.60;99.90;;;;;;5010137;28;20422;-67
2022/10/31 11:13:50;;;;;;;4.30;1.90;;;18.00;99.90;;;;;;5011818;28;20426;-66
2022/10/31 11:16:37;;;;;;;8.80;2.90;;;18.20;99.90;;;;;;5012440;28;20444;-66
2022/10/31 11:19:29;;;;;;;6.77;2.03;;;18.20;99.90;;;;;;5012548;28;21077;-67
2022/10/31 11:22:06;;;;;;;16.00;2.43;;;18.10;99.90;;;;;;5003377;28;20831;-66
2022/10/31 11:24:39;;;;;;;6.33;2.17;;;18.30;99.90;;;;;;5012503;28;21034;-66
2022/10/31 11:27:19;;;;;;;5.70;2.50;;;18.20;99.90;;;;;;5011839;28;20418;-66
2022/10/31 11:29:45;;;;;;;4.77;2.03;;;18.20;99.90;;;;;;5011129;28;20428;-66
2022/10/31 11:32:19;;;;;;;5.70;2.00;;;18.20;99.90;;;;;;5003020;28;21045;-66
2022/10/31 11:34:47;;;;;;;8.80;2.73;;;18.20;99.90;;;;;;5012545;28;20627;-66
2022/10/31 11:37:30;;;;;;;6.03;3.00;;;18.20;99.90;;;;;;5012037;28;20520;-66
2022/10/31 11:40:02;;;;;;;2.97;1.67;;;18.20;99.90;;;;;;5011991;28;20429;-66
2022/10/31 11:42:34;;;;;;;6.20;2.03;;;18.00;99.90;;;;;;5011131;28;20409;-66
2022/10/31 11:45:06;;;;;;;4.93;2.60;;;17.90;99.90;;;;;;5012275;28;20922;-66
2022/10/31 11:47:33;;;;;;;4.63;1.87;;;17.90;99.90;;;;;;5012340;28;20430;-66
2022/10/31 11:50:08;;;;;;;5.90;2.30;;;17.80;99.90;;;;;;5012310;28;20894;-66
2022/10/31 11:52:37;;;;;;;4.30;2.10;;;17.80;99.90;;;;;;5011717;28;20481;-66
2022/10/31 11:55:12;;;;;;;3.23;1.70;;;18.00;99.90;;;;;;5012215;28;20474;-66
2022/10/31 11:57:47;;;;;;;7.40;2.60;;;17.90;99.90;;;;;;5011346;28;20473;-66
2022/10/31 12:00:27;;;;;;;3.83;1.87;;;17.90;99.90;;;;;;5011789;28;20417;-66
2022/10/31 12:03:12;;;;;;;11.90;2.40;;;17.90;99.90;;;;;;4998040;28;20409;-66
2022/10/31 12:05:39;;;;;;;5.07;2.00;;;18.00;99.90;;;;;;5012107;28;20464;-66
2022/10/31 12:08:09;;;;;;;3.50;1.93;;;18.00;99.90;;;;;;5008970;28;20425;-66
2022/10/31 12:11:05;;;;;;;8.70;2.60;;;18.10;99.90;;;;;;5006256;28;20921;-66
2022/10/31 12:13:37;;;;;;;6.30;2.33;;;18.20;99.90;;;;;;5010682;28;20925;-66
2022/10/31 12:16:33;;;;;;;2.37;1.50;;;18.20;99.90;;;;;;5011600;28;20429;-66
2022/10/31 12:19:05;;;;;;;4.70;1.40;;;18.20;99.90;;;;;;5011599;28;21074;-66
2022/10/31 12:21:48;;;;;;;19.63;1.93;;;18.10;99.90;;;;;;5000406;28;20410;-66
2022/10/31 12:24:48;;;;;;;6.00;2.33;;;18.10;99.90;;;;;;5011559;28;20413;-66
2022/10/31 12:27:28;;;;;;;4.30;2.17;;;18.00;99.90;;;;;;5011065;28;20765;-66
2022/10/31 12:30:20;;;;;;;4.03;1.77;;;17.80;99.90;;;;;;5011067;28;20438;-66
2022/10/31 12:32:52;;;;;;;7.33;2.80;;;17.80;99.90;;;;;;5001293;28;20501;-66
2022/10/31 12:35:49;;;;;;;4.57;1.40;;;17.70;99.90;;;;;;5011877;28;20446;-66
2022/10/31 12:38:39;;;;;;;3.40;1.60;;;17.70;99.90;;;;;;4981510;28;20566;-66
2022/10/31 12:41:22;;;;;;;6.13;2.13;;;17.60;99.90;;;;;;5015680;28;20436;-66
2022/10/31 12:44:13;;;;;;;3.97;2.37;;;17.60;99.90;;;;;;5002149;28;20452;-66
2022/10/31 12:47:36;;;;;;;2.60;1.43;;;17.50;99.90;;;;;;5015125;28;20433;-66
2022/10/31 12:50:43;;;;;;;5.90;2.40;;;17.50;99.90;;;;;;4954416;29;20531;-66
2022/10/31 12:53:28;;;;;;;4.53;1.73;;;17.50;99.90;;;;;;5014691;28;20460;-66
2022/10/31 12:56:35;;;;;;;5.87;2.20;;;17.50;99.90;;;;;;5015170;28;20468;-66
2022/10/31 12:59:00;;;;;;;3.80;2.27;;;17.50;99.90;;;;;;5014570;28;20421;-66
2022/10/31 13:01:39;;;;;;;6.50;2.13;;;17.40;99.90;;;;;;5014416;28;20425;-66
2022/10/31 13:04:19;;;;;;;6.80;2.10;;;17.50;99.90;;;;;;5015044;28;20183;-66
2022/10/31 13:06:53;;;;;;;4.50;1.80;;;17.50;99.90;;;;;;5015114;28;20772;-66
2022/10/31 13:09:35;;;;;;;5.70;1.77;;;17.50;99.90;;;;;;5012840;28;20440;-66
2022/10/31 13:12:13;;;;;;;6.00;2.37;;;17.40;99.90;;;;;;5008612;28;20452;-66
2022/10/31 13:14:54;;;;;;;2.47;1.23;;;17.40;99.90;;;;;;5002594;28;20426;-66
2022/10/31 13:17:44;;;;;;;4.33;1.80;;;17.50;99.90;;;;;;5014546;28;20950;-66
2022/10/31 13:20:20;;;;;;;4.33;2.30;;;17.50;99.90;;;;;;5006925;28;20430;-66